sensor_id;sensor_type;location;lat;lon;timestamp;temperature;humidity
74359;DHT22;62792;46.236;6.040;2023-02-22T00:02:41;25.00;65.50
74359;DHT22;62792;46.236;6.040;2023-02-22T00:07:46;25.00;63.70
74359;DHT22;62792;46.236;6.040;2023-02-22T00:12:49;25.00;62.90
74359;DHT22;62792;46.236;6.040;2023-02-22T00:17:55;24.90;62.10
74359;DHT22;62792;46.236;6.040;2023-02-22T00:22:58;24.90;61.10
74359;DHT22;62792;46.236;6.040;2023-02-22T00:28:01;24.90;59.20
74359;DHT22;62792;46.236;6.040;2023-02-22T00:33:06;24.80;58.60
74359;DHT22;62792;46.236;6.040;2023-02-22T00:38:10;24.80;57.60
74359;DHT22;62792;46.236;6.040;2023-02-22T00:43:13;24.60;56.90
74359;DHT22;62792;46.236;6.040;2023-02-22T00:48:18;24.70;55.80
74359;DHT22;62792;46.236;6.040;2023-02-22T00:53:22;24.70;55.20
74359;DHT22;62792;46.236;6.040;2023-02-22T00:58:25;24.70;54.40
74359;DHT22;62792;46.236;6.040;2023-02-22T01:03:30;24.60;54.10
74359;DHT22;62792;46.236;6.040;2023-02-22T01:08:33;24.70;53.20
74359;DHT22;62792;46.236;6.040;2023-02-22T01:13:36;24.60;52.80
74359;DHT22;62792;46.236;6.040;2023-02-22T01:18:41;24.60;52.50
74359;DHT22;62792;46.236;6.040;2023-02-22T01:23:43;24.50;51.60
74359;DHT22;62792;46.236;6.040;2023-02-22T01:28:47;24.60;51.40
74359;DHT22;62792;46.236;6.040;2023-02-22T01:33:51;24.60;50.70
74359;DHT22;62792;46.236;6.040;2023-02-22T01:38:54;24.60;50.30
74359;DHT22;62792;46.236;6.040;2023-02-22T01:43:57;24.50;49.80
74359;DHT22;62792;46.236;6.040;2023-02-22T01:49:01;24.50;49.40
74359;DHT22;62792;46.236;6.040;2023-02-22T01:54:07;24.40;49.00
74359;DHT22;62792;46.236;6.040;2023-02-22T01:59:13;24.50;49.00
74359;DHT22;62792;46.236;6.040;2023-02-22T02:04:19;24.50;48.30
74359;DHT22;62792;46.236;6.040;2023-02-22T02:09:26;24.50;47.70
74359;DHT22;62792;46.236;6.040;2023-02-22T02:14:32;24.50;47.40
74359;DHT22;62792;46.236;6.040;2023-02-22T02:19:44;24.50;47.30
74359;DHT22;62792;46.236;6.040;2023-02-22T02:30:47;24.40;46.60
74359;DHT22;62792;46.236;6.040;2023-02-22T02:36:11;24.40;46.50
74359;DHT22;62792;46.236;6.040;2023-02-22T02:41:17;24.40;46.20
74359;DHT22;62792;46.236;6.040;2023-02-22T02:46:23;24.30;46.00
74359;DHT22;62792;46.236;6.040;2023-02-22T02:51:31;24.30;45.70
74359;DHT22;62792;46.236;6.040;2023-02-22T02:56:36;24.40;45.20
74359;DHT22;62792;46.236;6.040;2023-02-22T03:01:44;24.40;45.10
74359;DHT22;62792;46.236;6.040;2023-02-22T03:07:02;24.30;44.90
74359;DHT22;62792;46.236;6.040;2023-02-22T03:12:16;24.30;44.60
74359;DHT22;62792;46.236;6.040;2023-02-22T03:17:25;24.40;44.60
74359;DHT22;62792;46.236;6.040;2023-02-22T03:22:32;24.30;44.60
74359;DHT22;62792;46.236;6.040;2023-02-22T03:27:44;24.30;44.40
74359;DHT22;62792;46.236;6.040;2023-02-22T03:32:51;24.40;44.10
74359;DHT22;62792;46.236;6.040;2023-02-22T03:38:00;24.40;44.00
74359;DHT22;62792;46.236;6.040;2023-02-22T03:43:05;24.30;43.80
74359;DHT22;62792;46.236;6.040;2023-02-22T03:48:12;24.30;43.60
74359;DHT22;62792;46.236;6.040;2023-02-22T03:53:19;24.30;43.60
74359;DHT22;62792;46.236;6.040;2023-02-22T03:58:24;24.30;43.40
74359;DHT22;62792;46.236;6.040;2023-02-22T04:03:29;24.30;43.10
74359;DHT22;62792;46.236;6.040;2023-02-22T04:08:34;24.30;43.20
74359;DHT22;62792;46.236;6.040;2023-02-22T04:13:37;24.30;43.00
74359;DHT22;62792;46.236;6.040;2023-02-22T04:18:40;24.30;42.90
74359;DHT22;62792;46.236;6.040;2023-02-22T04:23:44;24.40;42.80
74359;DHT22;62792;46.236;6.040;2023-02-22T04:28:47;24.40;42.70
74359;DHT22;62792;46.236;6.040;2023-02-22T04:33:49;24.30;42.70
74359;DHT22;62792;46.236;6.040;2023-02-22T04:38:54;24.30;42.50
74359;DHT22;62792;46.236;6.040;2023-02-22T04:43:58;24.30;42.40
74359;DHT22;62792;46.236;6.040;2023-02-22T04:49:01;24.30;42.30
74359;DHT22;62792;46.236;6.040;2023-02-22T04:54:05;24.20;42.00
74359;DHT22;62792;46.236;6.040;2023-02-22T04:59:08;24.30;42.10
74359;DHT22;62792;46.236;6.040;2023-02-22T05:04:11;24.30;42.10
74359;DHT22;62792;46.236;6.040;2023-02-22T05:09:15;24.30;42.00
74359;DHT22;62792;46.236;6.040;2023-02-22T05:14:18;24.30;41.80
74359;DHT22;62792;46.236;6.040;2023-02-22T05:19:21;24.30;41.60
74359;DHT22;62792;46.236;6.040;2023-02-22T05:24:27;24.30;41.90
74359;DHT22;62792;46.236;6.040;2023-02-22T05:29:30;24.20;41.60
74359;DHT22;62792;46.236;6.040;2023-02-22T05:34:33;24.20;41.30
74359;DHT22;62792;46.236;6.040;2023-02-22T05:39:37;24.20;41.60
74359;DHT22;62792;46.236;6.040;2023-02-22T05:44:40;24.30;41.20
74359;DHT22;62792;46.236;6.040;2023-02-22T05:49:44;24.30;41.20
74359;DHT22;62792;46.236;6.040;2023-02-22T05:54:48;24.20;41.10
74359;DHT22;62792;46.236;6.040;2023-02-22T05:59:51;24.20;41.00
74359;DHT22;62792;46.236;6.040;2023-02-22T06:04:54;24.20;40.90
74359;DHT22;62792;46.236;6.040;2023-02-22T06:09:58;24.20;40.90
74359;DHT22;62792;46.236;6.040;2023-02-22T06:15:01;24.20;40.90
74359;DHT22;62792;46.236;6.040;2023-02-22T06:20:04;24.20;40.90
74359;DHT22;62792;46.236;6.040;2023-02-22T06:25:12;24.20;40.70
74359;DHT22;62792;46.236;6.040;2023-02-22T06:30:18;24.30;40.70
74359;DHT22;62792;46.236;6.040;2023-02-22T06:35:22;24.20;40.60
74359;DHT22;62792;46.236;6.040;2023-02-22T06:40:26;24.30;40.60
74359;DHT22;62792;46.236;6.040;2023-02-22T06:45:30;24.20;40.60
74359;DHT22;62792;46.236;6.040;2023-02-22T06:50:33;24.20;40.50
74359;DHT22;62792;46.236;6.040;2023-02-22T06:55:38;24.30;40.60
74359;DHT22;62792;46.236;6.040;2023-02-22T07:00:40;24.30;40.40
74359;DHT22;62792;46.236;6.040;2023-02-22T07:05:43;24.30;40.50
74359;DHT22;62792;46.236;6.040;2023-02-22T07:10:48;24.30;40.40
74359;DHT22;62792;46.236;6.040;2023-02-22T07:15:51;24.30;40.30
74359;DHT22;62792;46.236;6.040;2023-02-22T07:20:54;24.30;40.40
74359;DHT22;62792;46.236;6.040;2023-02-22T07:26:00;24.40;40.30
74359;DHT22;62792;46.236;6.040;2023-02-22T07:31:03;24.40;40.50
74359;DHT22;62792;46.236;6.040;2023-02-22T07:36:07;24.40;40.40
74359;DHT22;62792;46.236;6.040;2023-02-22T07:41:11;24.30;40.30
74359;DHT22;62792;46.236;6.040;2023-02-22T07:46:15;24.40;40.30
74359;DHT22;62792;46.236;6.040;2023-02-22T07:51:19;24.40;40.10
74359;DHT22;62792;46.236;6.040;2023-02-22T07:56:23;24.40;40.20
74359;DHT22;62792;46.236;6.040;2023-02-22T08:01:26;24.40;40.20
74359;DHT22;62792;46.236;6.040;2023-02-22T08:06:29;24.40;40.30
74359;DHT22;62792;46.236;6.040;2023-02-22T08:11:33;24.40;40.30
74359;DHT22;62792;46.236;6.040;2023-02-22T08:16:36;24.30;40.70
74359;DHT22;62792;46.236;6.040;2023-02-22T08:21:39;23.80;40.80
74359;DHT22;62792;46.236;6.040;2023-02-22T08:26:44;24.10;42.00
74359;DHT22;62792;46.236;6.040;2023-02-22T08:31:49;23.90;41.20
74359;DHT22;62792;46.236;6.040;2023-02-22T08:36:54;23.70;41.20
74359;DHT22;62792;46.236;6.040;2023-02-22T08:41:58;23.80;41.30
74359;DHT22;62792;46.236;6.040;2023-02-22T08:47:01;23.80;41.30
74359;DHT22;62792;46.236;6.040;2023-02-22T08:52:06;23.80;41.40
74359;DHT22;62792;46.236;6.040;2023-02-22T08:57:10;23.90;41.00
74359;DHT22;62792;46.236;6.040;2023-02-22T09:02:14;24.10;41.10
74359;DHT22;62792;46.236;6.040;2023-02-22T09:07:18;24.20;41.20
74359;DHT22;62792;46.236;6.040;2023-02-22T09:12:22;24.20;41.30
74359;DHT22;62792;46.236;6.040;2023-02-22T09:17:25;24.10;41.00
74359;DHT22;62792;46.236;6.040;2023-02-22T09:22:28;24.20;40.90
74359;DHT22;62792;46.236;6.040;2023-02-22T09:27:32;24.10;41.10
74359;DHT22;62792;46.236;6.040;2023-02-22T09:32:35;24.20;41.50
74359;DHT22;62792;46.236;6.040;2023-02-22T09:37:38;24.00;41.40
74359;DHT22;62792;46.236;6.040;2023-02-22T09:42:47;24.10;41.70
74359;DHT22;62792;46.236;6.040;2023-02-22T09:47:58;24.10;41.50
74359;DHT22;62792;46.236;6.040;2023-02-22T09:53:21;24.10;41.50
74359;DHT22;62792;46.236;6.040;2023-02-22T09:58:32;24.20;41.80
74359;DHT22;62792;46.236;6.040;2023-02-22T10:03:39;24.30;41.80
74359;DHT22;62792;46.236;6.040;2023-02-22T10:08:50;24.40;41.60
74359;DHT22;62792;46.236;6.040;2023-02-22T10:14:00;24.40;41.30
74359;DHT22;62792;46.236;6.040;2023-02-22T10:19:13;24.30;41.30
74359;DHT22;62792;46.236;6.040;2023-02-22T10:24:22;24.50;41.80
74359;DHT22;62792;46.236;6.040;2023-02-22T10:29:35;24.30;41.80
74359;DHT22;62792;46.236;6.040;2023-02-22T10:34:42;24.30;41.70
74359;DHT22;62792;46.236;6.040;2023-02-22T10:39:48;24.20;42.00
74359;DHT22;62792;46.236;6.040;2023-02-22T10:44:55;24.20;42.00
74359;DHT22;62792;46.236;6.040;2023-02-22T10:49:59;24.30;41.70
74359;DHT22;62792;46.236;6.040;2023-02-22T10:55:02;24.30;42.00
74359;DHT22;62792;46.236;6.040;2023-02-22T11:00:19;24.40;41.90
74359;DHT22;62792;46.236;6.040;2023-02-22T11:05:27;24.70;41.80
74359;DHT22;62792;46.236;6.040;2023-02-22T11:10:33;25.10;41.60
74359;DHT22;62792;46.236;6.040;2023-02-22T11:15:40;25.30;41.60
74359;DHT22;62792;46.236;6.040;2023-02-22T11:20:44;25.20;41.50
74359;DHT22;62792;46.236;6.040;2023-02-22T11:25:47;24.70;41.50
74359;DHT22;62792;46.236;6.040;2023-02-22T11:30:53;24.40;42.20
74359;DHT22;62792;46.236;6.040;2023-02-22T11:35:57;24.20;42.50
74359;DHT22;62792;46.236;6.040;2023-02-22T11:41:03;24.20;42.30
74359;DHT22;62792;46.236;6.040;2023-02-22T11:46:20;24.20;42.40
74359;DHT22;62792;46.236;6.040;2023-02-22T11:51:33;23.90;42.70
74359;DHT22;62792;46.236;6.040;2023-02-22T11:56:42;23.70;43.00
74359;DHT22;62792;46.236;6.040;2023-02-22T12:01:49;23.70;43.10
74359;DHT22;62792;46.236;6.040;2023-02-22T12:06:58;23.80;43.40
74359;DHT22;62792;46.236;6.040;2023-02-22T12:12:13;23.90;43.20
74359;DHT22;62792;46.236;6.040;2023-02-22T12:17:32;24.00;43.20
74359;DHT22;62792;46.236;6.040;2023-02-22T12:22:57;24.10;43.30
74359;DHT22;62792;46.236;6.040;2023-02-22T12:28:13;24.00;43.10
74359;DHT22;62792;46.236;6.040;2023-02-22T12:33:27;24.10;43.20
74359;DHT22;62792;46.236;6.040;2023-02-22T12:38:32;24.20;43.70
74359;DHT22;62792;46.236;6.040;2023-02-22T12:43:39;24.20;43.60
74359;DHT22;62792;46.236;6.040;2023-02-22T12:48:47;24.10;43.60
74359;DHT22;62792;46.236;6.040;2023-02-22T12:53:55;24.20;43.60
74359;DHT22;62792;46.236;6.040;2023-02-22T12:59:04;24.30;43.60
74359;DHT22;62792;46.236;6.040;2023-02-22T13:04:13;24.20;44.00
74359;DHT22;62792;46.236;6.040;2023-02-22T13:09:32;24.30;43.50
74359;DHT22;62792;46.236;6.040;2023-02-22T13:14:47;24.20;43.70
74359;DHT22;62792;46.236;6.040;2023-02-22T13:19:58;24.20;43.70
74359;DHT22;62792;46.236;6.040;2023-02-22T13:25:05;24.20;43.90
74359;DHT22;62792;46.236;6.040;2023-02-22T13:30:14;24.20;44.30
74359;DHT22;62792;46.236;6.040;2023-02-22T13:35:25;24.00;44.50
74359;DHT22;62792;46.236;6.040;2023-02-22T13:46:22;24.00;44.60
74359;DHT22;62792;46.236;6.040;2023-02-22T13:51:48;24.10;44.20
74359;DHT22;62792;46.236;6.040;2023-02-22T13:56:53;24.10;44.60
74359;DHT22;62792;46.236;6.040;2023-02-22T14:01:58;24.10;44.50
74359;DHT22;62792;46.236;6.040;2023-02-22T14:13:03;24.10;44.30
74359;DHT22;62792;46.236;6.040;2023-02-22T14:18:12;24.30;44.30
74359;DHT22;62792;46.236;6.040;2023-02-22T14:23:33;24.30;44.40
74359;DHT22;62792;46.236;6.040;2023-02-22T14:28:39;24.30;44.40
74359;DHT22;62792;46.236;6.040;2023-02-22T14:33:54;24.30;44.60
74359;DHT22;62792;46.236;6.040;2023-02-22T14:39:05;24.30;44.20
74359;DHT22;62792;46.236;6.040;2023-02-22T14:44:15;24.20;44.20
74359;DHT22;62792;46.236;6.040;2023-02-22T14:49:24;24.20;44.20
74359;DHT22;62792;46.236;6.040;2023-02-22T14:54:30;24.10;44.30
74359;DHT22;62792;46.236;6.040;2023-02-22T14:59:36;24.30;44.50
74359;DHT22;62792;46.236;6.040;2023-02-22T15:04:50;24.40;44.70
74359;DHT22;62792;46.236;6.040;2023-02-22T15:10:04;24.50;44.40
74359;DHT22;62792;46.236;6.040;2023-02-22T15:15:12;24.40;44.30
74359;DHT22;62792;46.236;6.040;2023-02-22T15:20:22;24.30;44.50
74359;DHT22;62792;46.236;6.040;2023-02-22T15:25:27;24.40;44.20
74359;DHT22;62792;46.236;6.040;2023-02-22T15:30:33;24.50;43.90
74359;DHT22;62792;46.236;6.040;2023-02-22T15:35:36;24.40;44.30
74359;DHT22;62792;46.236;6.040;2023-02-22T15:40:39;24.40;44.30
74359;DHT22;62792;46.236;6.040;2023-02-22T15:45:45;24.40;44.20
74359;DHT22;62792;46.236;6.040;2023-02-22T15:51:02;24.30;44.50
74359;DHT22;62792;46.236;6.040;2023-02-22T15:56:09;24.40;44.50
74359;DHT22;62792;46.236;6.040;2023-02-22T16:01:16;24.40;44.80
74359;DHT22;62792;46.236;6.040;2023-02-22T16:06:23;24.40;44.50
74359;DHT22;62792;46.236;6.040;2023-02-22T16:11:31;24.40;44.50
74359;DHT22;62792;46.236;6.040;2023-02-22T16:16:40;24.30;44.80
74359;DHT22;62792;46.236;6.040;2023-02-22T16:21:50;24.30;44.60
74359;DHT22;62792;46.236;6.040;2023-02-22T16:27:02;24.50;44.70
74359;DHT22;62792;46.236;6.040;2023-02-22T16:32:08;24.50;44.40
74359;DHT22;62792;46.236;6.040;2023-02-22T16:37:18;24.50;44.50
74359;DHT22;62792;46.236;6.040;2023-02-22T16:42:23;24.90;43.90
74359;DHT22;62792;46.236;6.040;2023-02-22T16:47:27;25.00;43.80
74359;DHT22;62792;46.236;6.040;2023-02-22T16:52:30;25.10;43.50
74359;DHT22;62792;46.236;6.040;2023-02-22T16:57:33;25.00;43.70
74359;DHT22;62792;46.236;6.040;2023-02-22T17:02:37;25.10;43.40
74359;DHT22;62792;46.236;6.040;2023-02-22T17:07:40;25.00;43.40
74359;DHT22;62792;46.236;6.040;2023-02-22T17:12:44;24.90;43.60
74359;DHT22;62792;46.236;6.040;2023-02-22T17:17:49;24.90;43.50
74359;DHT22;62792;46.236;6.040;2023-02-22T17:22:55;24.90;43.30
74359;DHT22;62792;46.236;6.040;2023-02-22T17:27:59;24.90;43.40
74359;DHT22;62792;46.236;6.040;2023-02-22T17:33:04;24.80;43.30
74359;DHT22;62792;46.236;6.040;2023-02-22T17:38:08;24.80;43.30
74359;DHT22;62792;46.236;6.040;2023-02-22T17:43:11;24.90;43.60
74359;DHT22;62792;46.236;6.040;2023-02-22T17:48:15;24.80;43.30
74359;DHT22;62792;46.236;6.040;2023-02-22T17:53:19;24.90;43.60
74359;DHT22;62792;46.236;6.040;2023-02-22T17:58:25;24.80;43.20
74359;DHT22;62792;46.236;6.040;2023-02-22T18:03:32;24.90;43.40
74359;DHT22;62792;46.236;6.040;2023-02-22T18:08:39;24.70;43.50
74359;DHT22;62792;46.236;6.040;2023-02-22T18:13:42;24.70;43.40
74359;DHT22;62792;46.236;6.040;2023-02-22T18:18:46;24.80;43.50
74359;DHT22;62792;46.236;6.040;2023-02-22T18:23:50;24.80;43.40
74359;DHT22;62792;46.236;6.040;2023-02-22T18:28:53;24.80;43.30
74359;DHT22;62792;46.236;6.040;2023-02-22T18:33:57;24.80;43.50
74359;DHT22;62792;46.236;6.040;2023-02-22T18:39:00;24.80;43.40
74359;DHT22;62792;46.236;6.040;2023-02-22T18:44:03;24.80;43.50
74359;DHT22;62792;46.236;6.040;2023-02-22T18:49:12;24.80;43.30
74359;DHT22;62792;46.236;6.040;2023-02-22T18:54:15;24.70;43.40
74359;DHT22;62792;46.236;6.040;2023-02-22T18:59:20;24.80;43.40
74359;DHT22;62792;46.236;6.040;2023-02-22T19:04:24;24.80;43.40
74359;DHT22;62792;46.236;6.040;2023-02-22T19:09:28;24.80;43.20
74359;DHT22;62792;46.236;6.040;2023-02-22T19:14:31;24.90;43.10
74359;DHT22;62792;46.236;6.040;2023-02-22T19:19:35;24.80;43.10
74359;DHT22;62792;46.236;6.040;2023-02-22T19:24:38;24.80;43.20
74359;DHT22;62792;46.236;6.040;2023-02-22T19:29:41;24.70;43.20
74359;DHT22;62792;46.236;6.040;2023-02-22T19:34:45;24.70;43.10
74359;DHT22;62792;46.236;6.040;2023-02-22T19:39:48;24.70;43.20
74359;DHT22;62792;46.236;6.040;2023-02-22T19:44:51;24.60;43.20
74359;DHT22;62792;46.236;6.040;2023-02-22T19:49:56;24.60;43.20
74359;DHT22;62792;46.236;6.040;2023-02-22T19:55:00;24.70;43.20
74359;DHT22;62792;46.236;6.040;2023-02-22T20:00:04;24.60;43.20
74359;DHT22;62792;46.236;6.040;2023-02-22T20:05:12;24.60;43.20
74359;DHT22;62792;46.236;6.040;2023-02-22T20:10:16;24.50;43.20
74359;DHT22;62792;46.236;6.040;2023-02-22T20:15:20;24.70;43.20
74359;DHT22;62792;46.236;6.040;2023-02-22T20:20:25;24.60;43.20
74359;DHT22;62792;46.236;6.040;2023-02-22T20:25:31;24.70;43.10
74359;DHT22;62792;46.236;6.040;2023-02-22T20:30:35;24.70;43.20
74359;DHT22;62792;46.236;6.040;2023-02-22T20:35:40;24.70;43.20
74359;DHT22;62792;46.236;6.040;2023-02-22T20:40:43;24.60;43.10
74359;DHT22;62792;46.236;6.040;2023-02-22T20:45:47;24.50;43.20
74359;DHT22;62792;46.236;6.040;2023-02-22T20:50:51;24.60;43.20
74359;DHT22;62792;46.236;6.040;2023-02-22T20:55:54;24.60;43.20
74359;DHT22;62792;46.236;6.040;2023-02-22T21:01:02;24.60;43.20
74359;DHT22;62792;46.236;6.040;2023-02-22T21:06:07;24.60;43.30
74359;DHT22;62792;46.236;6.040;2023-02-22T21:11:12;24.50;43.40
74359;DHT22;62792;46.236;6.040;2023-02-22T21:16:17;24.50;43.20
74359;DHT22;62792;46.236;6.040;2023-02-22T21:21:25;24.40;43.30
74359;DHT22;62792;46.236;6.040;2023-02-22T21:26:28;24.60;43.30
74359;DHT22;62792;46.236;6.040;2023-02-22T21:31:35;24.60;43.10
74359;DHT22;62792;46.236;6.040;2023-02-22T21:36:39;24.50;43.00
74359;DHT22;62792;46.236;6.040;2023-02-22T21:41:42;24.50;43.10
74359;DHT22;62792;46.236;6.040;2023-02-22T21:46:46;24.50;43.20
74359;DHT22;62792;46.236;6.040;2023-02-22T21:51:51;24.40;43.20
74359;DHT22;62792;46.236;6.040;2023-02-22T21:56:54;24.40;43.30
74359;DHT22;62792;46.236;6.040;2023-02-22T22:01:57;24.50;43.20
74359;DHT22;62792;46.236;6.040;2023-02-22T22:07:01;24.60;43.10
74359;DHT22;62792;46.236;6.040;2023-02-22T22:12:05;24.50;43.10
74359;DHT22;62792;46.236;6.040;2023-02-22T22:17:10;24.50;43.10
74359;DHT22;62792;46.236;6.040;2023-02-22T22:22:14;24.50;43.20
74359;DHT22;62792;46.236;6.040;2023-02-22T22:27:17;24.50;43.20
74359;DHT22;62792;46.236;6.040;2023-02-22T22:32:23;24.40;43.20
74359;DHT22;62792;46.236;6.040;2023-02-22T22:37:29;24.50;43.30
74359;DHT22;62792;46.236;6.040;2023-02-22T22:42:32;24.50;43.10
74359;DHT22;62792;46.236;6.040;2023-02-22T22:47:35;24.50;43.10
74359;DHT22;62792;46.236;6.040;2023-02-22T22:52:40;24.50;43.10
74359;DHT22;62792;46.236;6.040;2023-02-22T22:57:43;24.60;43.20
74359;DHT22;62792;46.236;6.040;2023-02-22T23:02:46;24.50;43.20
74359;DHT22;62792;46.236;6.040;2023-02-22T23:07:50;24.50;43.20
74359;DHT22;62792;46.236;6.040;2023-02-22T23:12:53;24.50;43.10
74359;DHT22;62792;46.236;6.040;2023-02-22T23:17:57;24.50;43.20
74359;DHT22;62792;46.236;6.040;2023-02-22T23:23:01;24.50;43.20
74359;DHT22;62792;46.236;6.040;2023-02-22T23:28:06;24.60;43.20
74359;DHT22;62792;46.236;6.040;2023-02-22T23:33:15;24.50;43.10
74359;DHT22;62792;46.236;6.040;2023-02-22T23:38:19;24.60;42.90
74359;DHT22;62792;46.236;6.040;2023-02-22T23:43:22;24.50;43.10
74359;DHT22;62792;46.236;6.040;2023-02-22T23:48:25;24.50;43.10
74359;DHT22;62792;46.236;6.040;2023-02-22T23:53:31;24.50;43.30
74359;DHT22;62792;46.236;6.040;2023-02-22T23:58:38;24.50;43.00
